sensor_id;sensor_type;location;lat;lon;timestamp;temperature;humidity
5697;DHT22;2873;50.966;7.210;2024-02-04T00:00:09;10.60;99.90
5697;DHT22;2873;50.966;7.210;2024-02-04T00:02:36;10.80;99.90
5697;DHT22;2873;50.966;7.210;2024-02-04T00:05:03;10.70;99.90
5697;DHT22;2873;50.966;7.210;2024-02-04T00:07:28;10.80;99.90
5697;DHT22;2873;50.966;7.210;2024-02-04T00:09:54;10.70;99.90
5697;DHT22;2873;50.966;7.210;2024-02-04T00:12:20;10.70;99.90
5697;DHT22;2873;50.966;7.210;2024-02-04T00:14:47;10.60;99.90
5697;DHT22;2873;50.966;7.210;2024-02-04T00:17:17;10.70;99.90
5697;DHT22;2873;50.966;7.210;2024-02-04T00:19:43;10.60;99.90
5697;DHT22;2873;50.966;7.210;2024-02-04T00:22:09;10.70;99.90
5697;DHT22;2873;50.966;7.210;2024-02-04T00:24:34;10.80;99.90
5697;DHT22;2873;50.966;7.210;2024-02-04T00:27:00;10.70;99.90
5697;DHT22;2873;50.966;7.210;2024-02-04T00:29:26;10.70;99.90
5697;DHT22;2873;50.966;7.210;2024-02-04T00:31:51;10.60;99.90
5697;DHT22;2873;50.966;7.210;2024-02-04T00:34:17;10.70;99.90
5697;DHT22;2873;50.966;7.210;2024-02-04T00:36:42;10.60;99.90
5697;DHT22;2873;50.966;7.210;2024-02-04T00:39:08;10.60;99.90
5697;DHT22;2873;50.966;7.210;2024-02-04T00:41:34;10.60;99.90
5697;DHT22;2873;50.966;7.210;2024-02-04T00:44:00;10.60;99.90
5697;DHT22;2873;50.966;7.210;2024-02-04T00:46:26;10.60;99.90
5697;DHT22;2873;50.966;7.210;2024-02-04T00:48:52;10.60;99.90
5697;DHT22;2873;50.966;7.210;2024-02-04T00:51:17;10.80;99.90
5697;DHT22;2873;50.966;7.210;2024-02-04T00:53:43;10.80;99.90
5697;DHT22;2873;50.966;7.210;2024-02-04T00:56:09;10.90;99.90
5697;DHT22;2873;50.966;7.210;2024-02-04T00:58:36;10.70;99.90
5697;DHT22;2873;50.966;7.210;2024-02-04T01:01:02;10.50;99.90
5697;DHT22;2873;50.966;7.210;2024-02-04T01:03:28;10.40;99.90
5697;DHT22;2873;50.966;7.210;2024-02-04T01:05:53;10.50;99.90
5697;DHT22;2873;50.966;7.210;2024-02-04T01:08:21;10.50;99.90
5697;DHT22;2873;50.966;7.210;2024-02-04T01:10:47;10.70;99.90
5697;DHT22;2873;50.966;7.210;2024-02-04T01:13:13;10.50;99.90
5697;DHT22;2873;50.966;7.210;2024-02-04T01:15:39;10.40;99.90
5697;DHT22;2873;50.966;7.210;2024-02-04T01:18:04;10.30;99.90
5697;DHT22;2873;50.966;7.210;2024-02-04T01:20:30;10.40;99.90
5697;DHT22;2873;50.966;7.210;2024-02-04T01:22:55;10.20;99.90
5697;DHT22;2873;50.966;7.210;2024-02-04T01:25:21;10.40;99.90
5697;DHT22;2873;50.966;7.210;2024-02-04T01:27:46;10.20;99.90
5697;DHT22;2873;50.966;7.210;2024-02-04T01:30:12;10.20;99.90
5697;DHT22;2873;50.966;7.210;2024-02-04T01:32:37;10.20;99.90
5697;DHT22;2873;50.966;7.210;2024-02-04T01:35:03;10.10;99.90
5697;DHT22;2873;50.966;7.210;2024-02-04T01:37:29;10.00;99.90
5697;DHT22;2873;50.966;7.210;2024-02-04T01:39:54;10.00;99.90
5697;DHT22;2873;50.966;7.210;2024-02-04T01:42:20;10.00;99.90
5697;DHT22;2873;50.966;7.210;2024-02-04T01:44:46;10.20;99.90
5697;DHT22;2873;50.966;7.210;2024-02-04T01:47:11;10.10;99.90
5697;DHT22;2873;50.966;7.210;2024-02-04T01:49:38;10.10;99.90
5697;DHT22;2873;50.966;7.210;2024-02-04T01:52:04;10.00;99.90
5697;DHT22;2873;50.966;7.210;2024-02-04T01:54:31;10.10;99.90
5697;DHT22;2873;50.966;7.210;2024-02-04T01:56:59;10.00;99.90
5697;DHT22;2873;50.966;7.210;2024-02-04T01:59:27;10.10;99.90
5697;DHT22;2873;50.966;7.210;2024-02-04T02:01:57;10.10;99.90
5697;DHT22;2873;50.966;7.210;2024-02-04T02:04:24;10.20;99.90
5697;DHT22;2873;50.966;7.210;2024-02-04T02:06:51;10.30;99.90
5697;DHT22;2873;50.966;7.210;2024-02-04T02:09:17;10.30;99.90
5697;DHT22;2873;50.966;7.210;2024-02-04T02:14:32;10.10;99.90
5697;DHT22;2873;50.966;7.210;2024-02-04T02:17:02;10.20;99.90
5697;DHT22;2873;50.966;7.210;2024-02-04T02:19:52;10.20;99.90
5697;DHT22;2873;50.966;7.210;2024-02-04T02:22:32;10.20;99.90
5697;DHT22;2873;50.966;7.210;2024-02-04T02:25:03;10.30;99.90
5697;DHT22;2873;50.966;7.210;2024-02-04T02:27:30;10.20;99.90
5697;DHT22;2873;50.966;7.210;2024-02-04T02:29:56;10.40;99.90
5697;DHT22;2873;50.966;7.210;2024-02-04T02:32:21;10.50;99.90
5697;DHT22;2873;50.966;7.210;2024-02-04T02:34:47;10.40;99.90
5697;DHT22;2873;50.966;7.210;2024-02-04T02:40:30;10.40;99.90
5697;DHT22;2873;50.966;7.210;2024-02-04T02:43:02;10.50;99.90
5697;DHT22;2873;50.966;7.210;2024-02-04T02:45:28;10.30;99.90
5697;DHT22;2873;50.966;7.210;2024-02-04T02:47:54;10.30;99.90
5697;DHT22;2873;50.966;7.210;2024-02-04T02:50:20;10.20;99.90
5697;DHT22;2873;50.966;7.210;2024-02-04T02:52:46;10.30;99.90
5697;DHT22;2873;50.966;7.210;2024-02-04T02:55:11;10.20;99.90
5697;DHT22;2873;50.966;7.210;2024-02-04T02:57:37;10.10;99.90
5697;DHT22;2873;50.966;7.210;2024-02-04T03:00:03;10.10;99.90
5697;DHT22;2873;50.966;7.210;2024-02-04T03:02:31;10.10;99.90
5697;DHT22;2873;50.966;7.210;2024-02-04T03:04:56;10.10;99.90
5697;DHT22;2873;50.966;7.210;2024-02-04T03:07:22;10.20;99.90
5697;DHT22;2873;50.966;7.210;2024-02-04T03:09:47;10.20;99.90
5697;DHT22;2873;50.966;7.210;2024-02-04T03:12:13;10.20;99.90
5697;DHT22;2873;50.966;7.210;2024-02-04T03:14:39;10.20;99.90
5697;DHT22;2873;50.966;7.210;2024-02-04T03:17:04;10.30;99.90
5697;DHT22;2873;50.966;7.210;2024-02-04T03:19:30;10.20;99.90
5697;DHT22;2873;50.966;7.210;2024-02-04T03:21:55;10.30;99.90
5697;DHT22;2873;50.966;7.210;2024-02-04T03:24:21;10.20;99.90
5697;DHT22;2873;50.966;7.210;2024-02-04T03:26:46;10.20;99.90
5697;DHT22;2873;50.966;7.210;2024-02-04T03:29:12;10.40;99.90
5697;DHT22;2873;50.966;7.210;2024-02-04T03:31:37;10.50;99.90
5697;DHT22;2873;50.966;7.210;2024-02-04T03:34:03;10.40;99.90
5697;DHT22;2873;50.966;7.210;2024-02-04T03:36:28;10.40;99.90
5697;DHT22;2873;50.966;7.210;2024-02-04T03:38:54;10.30;99.90
5697;DHT22;2873;50.966;7.210;2024-02-04T03:41:19;10.40;99.90
5697;DHT22;2873;50.966;7.210;2024-02-04T03:43:45;10.20;99.90
5697;DHT22;2873;50.966;7.210;2024-02-04T03:46:14;10.30;99.90
5697;DHT22;2873;50.966;7.210;2024-02-04T03:48:40;10.40;99.90
5697;DHT22;2873;50.966;7.210;2024-02-04T03:51:06;10.50;99.90
5697;DHT22;2873;50.966;7.210;2024-02-04T03:53:32;10.40;99.90
5697;DHT22;2873;50.966;7.210;2024-02-04T03:55:58;10.40;99.90
5697;DHT22;2873;50.966;7.210;2024-02-04T03:58:23;10.40;99.90
5697;DHT22;2873;50.966;7.210;2024-02-04T04:00:55;10.50;99.90
5697;DHT22;2873;50.966;7.210;2024-02-04T04:03:21;10.60;99.90
5697;DHT22;2873;50.966;7.210;2024-02-04T04:05:47;10.40;99.90
5697;DHT22;2873;50.966;7.210;2024-02-04T04:08:13;10.30;99.90
5697;DHT22;2873;50.966;7.210;2024-02-04T04:10:38;10.40;99.90
5697;DHT22;2873;50.966;7.210;2024-02-04T04:13:04;10.40;99.90
5697;DHT22;2873;50.966;7.210;2024-02-04T04:15:29;10.40;99.90
5697;DHT22;2873;50.966;7.210;2024-02-04T04:17:55;10.70;99.90
5697;DHT22;2873;50.966;7.210;2024-02-04T04:20:20;10.60;99.90
5697;DHT22;2873;50.966;7.210;2024-02-04T04:22:46;10.50;99.90
5697;DHT22;2873;50.966;7.210;2024-02-04T04:25:12;10.50;99.90
5697;DHT22;2873;50.966;7.210;2024-02-04T04:27:39;10.60;99.90
5697;DHT22;2873;50.966;7.210;2024-02-04T04:30:05;10.50;99.90
5697;DHT22;2873;50.966;7.210;2024-02-04T04:32:30;10.50;99.90
5697;DHT22;2873;50.966;7.210;2024-02-04T04:34:56;10.50;99.90
5697;DHT22;2873;50.966;7.210;2024-02-04T04:37:22;10.70;99.90
5697;DHT22;2873;50.966;7.210;2024-02-04T04:39:47;10.70;99.90
5697;DHT22;2873;50.966;7.210;2024-02-04T04:42:13;10.70;99.90
5697;DHT22;2873;50.966;7.210;2024-02-04T04:44:38;10.70;99.90
5697;DHT22;2873;50.966;7.210;2024-02-04T04:47:04;10.70;99.90
5697;DHT22;2873;50.966;7.210;2024-02-04T04:49:29;10.60;99.90
5697;DHT22;2873;50.966;7.210;2024-02-04T04:51:55;10.80;99.90
5697;DHT22;2873;50.966;7.210;2024-02-04T04:54:20;11.00;99.90
5697;DHT22;2873;50.966;7.210;2024-02-04T04:56:46;10.90;99.90
5697;DHT22;2873;50.966;7.210;2024-02-04T04:59:12;10.60;99.90
5697;DHT22;2873;50.966;7.210;2024-02-04T05:01:44;10.70;99.90
5697;DHT22;2873;50.966;7.210;2024-02-04T05:04:09;10.90;99.90
5697;DHT22;2873;50.966;7.210;2024-02-04T05:06:35;10.80;99.90
5697;DHT22;2873;50.966;7.210;2024-02-04T05:09:00;10.80;99.90
5697;DHT22;2873;50.966;7.210;2024-02-04T05:11:26;11.10;99.90
5697;DHT22;2873;50.966;7.210;2024-02-04T05:13:51;10.90;99.90
5697;DHT22;2873;50.966;7.210;2024-02-04T05:16:17;10.90;99.90
5697;DHT22;2873;50.966;7.210;2024-02-04T05:18:42;10.70;99.90
5697;DHT22;2873;50.966;7.210;2024-02-04T05:21:08;10.80;99.90
5697;DHT22;2873;50.966;7.210;2024-02-04T05:23:33;10.80;99.90
5697;DHT22;2873;50.966;7.210;2024-02-04T05:26:03;10.70;99.90
5697;DHT22;2873;50.966;7.210;2024-02-04T05:28:30;10.70;99.90
5697;DHT22;2873;50.966;7.210;2024-02-04T05:30:55;10.90;99.90
5697;DHT22;2873;50.966;7.210;2024-02-04T05:33:21;10.90;99.90
5697;DHT22;2873;50.966;7.210;2024-02-04T05:35:46;10.90;99.90
5697;DHT22;2873;50.966;7.210;2024-02-04T05:38:12;10.80;99.90
5697;DHT22;2873;50.966;7.210;2024-02-04T05:40:37;11.00;99.90
5697;DHT22;2873;50.966;7.210;2024-02-04T05:43:03;10.80;99.90
5697;DHT22;2873;50.966;7.210;2024-02-04T05:45:33;10.80;99.90
5697;DHT22;2873;50.966;7.210;2024-02-04T05:47:59;10.90;99.90
5697;DHT22;2873;50.966;7.210;2024-02-04T05:50:24;11.00;99.90
5697;DHT22;2873;50.966;7.210;2024-02-04T05:52:50;10.70;99.90
5697;DHT22;2873;50.966;7.210;2024-02-04T05:55:15;10.90;99.90
5697;DHT22;2873;50.966;7.210;2024-02-04T05:57:41;10.70;99.90
5697;DHT22;2873;50.966;7.210;2024-02-04T06:00:07;10.90;99.90
5697;DHT22;2873;50.966;7.210;2024-02-04T06:02:35;10.80;99.90
5697;DHT22;2873;50.966;7.210;2024-02-04T06:05:01;10.90;99.90
5697;DHT22;2873;50.966;7.210;2024-02-04T06:07:27;10.80;99.90
5697;DHT22;2873;50.966;7.210;2024-02-04T06:09:54;10.90;99.90
5697;DHT22;2873;50.966;7.210;2024-02-04T06:12:21;11.00;99.90
5697;DHT22;2873;50.966;7.210;2024-02-04T06:14:47;11.00;99.90
5697;DHT22;2873;50.966;7.210;2024-02-04T06:17:13;10.90;99.90
5697;DHT22;2873;50.966;7.210;2024-02-04T06:19:38;10.90;99.90
5697;DHT22;2873;50.966;7.210;2024-02-04T06:22:04;10.70;99.90
5697;DHT22;2873;50.966;7.210;2024-02-04T06:24:29;10.70;99.90
5697;DHT22;2873;50.966;7.210;2024-02-04T06:26:55;10.70;99.90
5697;DHT22;2873;50.966;7.210;2024-02-04T06:29:21;10.70;99.90
5697;DHT22;2873;50.966;7.210;2024-02-04T06:31:47;10.70;99.90
5697;DHT22;2873;50.966;7.210;2024-02-04T06:34:12;10.80;99.90
5697;DHT22;2873;50.966;7.210;2024-02-04T06:36:41;10.80;99.90
5697;DHT22;2873;50.966;7.210;2024-02-04T06:39:07;10.70;99.90
5697;DHT22;2873;50.966;7.210;2024-02-04T06:41:34;10.70;99.90
5697;DHT22;2873;50.966;7.210;2024-02-04T06:44:00;10.80;99.90
5697;DHT22;2873;50.966;7.210;2024-02-04T06:46:26;10.90;99.90
5697;DHT22;2873;50.966;7.210;2024-02-04T06:48:52;10.70;99.90
5697;DHT22;2873;50.966;7.210;2024-02-04T06:51:18;10.70;99.90
5697;DHT22;2873;50.966;7.210;2024-02-04T06:53:43;10.60;99.90
5697;DHT22;2873;50.966;7.210;2024-02-04T06:56:09;10.70;99.90
5697;DHT22;2873;50.966;7.210;2024-02-04T06:58:37;10.80;99.90
5697;DHT22;2873;50.966;7.210;2024-02-04T07:01:03;10.80;99.90
5697;DHT22;2873;50.966;7.210;2024-02-04T07:03:29;10.90;99.90
5697;DHT22;2873;50.966;7.210;2024-02-04T07:05:55;10.80;99.90
5697;DHT22;2873;50.966;7.210;2024-02-04T07:08:20;10.70;99.90
5697;DHT22;2873;50.966;7.210;2024-02-04T07:10:46;10.70;99.90
5697;DHT22;2873;50.966;7.210;2024-02-04T07:13:12;10.70;99.90
5697;DHT22;2873;50.966;7.210;2024-02-04T07:15:38;10.70;99.90
5697;DHT22;2873;50.966;7.210;2024-02-04T07:18:04;10.90;99.90
5697;DHT22;2873;50.966;7.210;2024-02-04T07:20:29;10.80;99.90
5697;DHT22;2873;50.966;7.210;2024-02-04T07:22:55;10.80;99.90
5697;DHT22;2873;50.966;7.210;2024-02-04T07:25:20;11.00;99.90
5697;DHT22;2873;50.966;7.210;2024-02-04T07:27:46;11.00;99.90
5697;DHT22;2873;50.966;7.210;2024-02-04T07:30:12;10.70;99.90
5697;DHT22;2873;50.966;7.210;2024-02-04T07:32:37;10.70;99.90
5697;DHT22;2873;50.966;7.210;2024-02-04T07:35:03;10.90;99.90
5697;DHT22;2873;50.966;7.210;2024-02-04T07:37:29;10.70;99.90
5697;DHT22;2873;50.966;7.210;2024-02-04T07:39:54;10.60;99.90
5697;DHT22;2873;50.966;7.210;2024-02-04T07:42:20;10.60;99.90
5697;DHT22;2873;50.966;7.210;2024-02-04T07:44:45;10.50;99.90
5697;DHT22;2873;50.966;7.210;2024-02-04T07:47:11;10.50;99.90
5697;DHT22;2873;50.966;7.210;2024-02-04T07:49:36;10.50;99.90
5697;DHT22;2873;50.966;7.210;2024-02-04T07:52:03;10.70;99.90
5697;DHT22;2873;50.966;7.210;2024-02-04T07:54:28;10.50;99.90
5697;DHT22;2873;50.966;7.210;2024-02-04T07:56:54;10.50;99.90
5697;DHT22;2873;50.966;7.210;2024-02-04T07:59:20;10.70;99.90
5697;DHT22;2873;50.966;7.210;2024-02-04T08:01:46;10.60;99.90
5697;DHT22;2873;50.966;7.210;2024-02-04T08:04:11;10.50;99.90
5697;DHT22;2873;50.966;7.210;2024-02-04T08:06:37;10.60;99.90
5697;DHT22;2873;50.966;7.210;2024-02-04T08:09:03;10.50;99.90
5697;DHT22;2873;50.966;7.210;2024-02-04T08:11:29;10.40;99.90
5697;DHT22;2873;50.966;7.210;2024-02-04T08:13:55;10.60;99.90
5697;DHT22;2873;50.966;7.210;2024-02-04T08:16:21;10.50;99.90
5697;DHT22;2873;50.966;7.210;2024-02-04T08:18:46;10.40;99.90
5697;DHT22;2873;50.966;7.210;2024-02-04T08:21:12;10.40;99.90
5697;DHT22;2873;50.966;7.210;2024-02-04T08:23:38;10.40;99.90
5697;DHT22;2873;50.966;7.210;2024-02-04T08:26:05;10.40;99.90
5697;DHT22;2873;50.966;7.210;2024-02-04T08:28:31;10.40;99.90
5697;DHT22;2873;50.966;7.210;2024-02-04T08:30:56;10.40;99.90
5697;DHT22;2873;50.966;7.210;2024-02-04T08:33:22;10.70;99.90
5697;DHT22;2873;50.966;7.210;2024-02-04T08:35:48;10.60;99.90
5697;DHT22;2873;50.966;7.210;2024-02-04T08:38:14;10.40;99.90
5697;DHT22;2873;50.966;7.210;2024-02-04T08:40:40;10.40;99.90
5697;DHT22;2873;50.966;7.210;2024-02-04T08:43:05;10.60;99.90
5697;DHT22;2873;50.966;7.210;2024-02-04T08:45:31;10.60;99.90
5697;DHT22;2873;50.966;7.210;2024-02-04T08:47:56;10.50;99.90
5697;DHT22;2873;50.966;7.210;2024-02-04T08:50:22;10.60;99.90
5697;DHT22;2873;50.966;7.210;2024-02-04T08:52:47;10.70;99.90
5697;DHT22;2873;50.966;7.210;2024-02-04T08:55:13;10.80;99.90
5697;DHT22;2873;50.966;7.210;2024-02-04T08:57:39;10.80;99.90
5697;DHT22;2873;50.966;7.210;2024-02-04T09:00:05;10.70;99.90
5697;DHT22;2873;50.966;7.210;2024-02-04T09:02:36;10.70;99.90
5697;DHT22;2873;50.966;7.210;2024-02-04T09:05:02;10.80;99.90
5697;DHT22;2873;50.966;7.210;2024-02-04T09:07:27;10.80;99.90
5697;DHT22;2873;50.966;7.210;2024-02-04T09:09:53;10.70;99.90
5697;DHT22;2873;50.966;7.210;2024-02-04T09:12:19;11.00;99.90
5697;DHT22;2873;50.966;7.210;2024-02-04T09:14:44;11.10;99.90
5697;DHT22;2873;50.966;7.210;2024-02-04T09:17:10;11.10;99.90
5697;DHT22;2873;50.966;7.210;2024-02-04T09:19:35;11.20;99.90
5697;DHT22;2873;50.966;7.210;2024-02-04T09:22:01;11.10;99.90
5697;DHT22;2873;50.966;7.210;2024-02-04T09:24:30;10.80;99.90
5697;DHT22;2873;50.966;7.210;2024-02-04T09:26:56;10.80;99.90
5697;DHT22;2873;50.966;7.210;2024-02-04T09:29:21;11.00;99.90
5697;DHT22;2873;50.966;7.210;2024-02-04T09:31:47;10.80;99.90
5697;DHT22;2873;50.966;7.210;2024-02-04T09:34:15;10.80;99.90
5697;DHT22;2873;50.966;7.210;2024-02-04T09:36:41;10.80;99.90
5697;DHT22;2873;50.966;7.210;2024-02-04T09:39:06;10.90;99.90
5697;DHT22;2873;50.966;7.210;2024-02-04T09:41:32;11.00;99.90
5697;DHT22;2873;50.966;7.210;2024-02-04T09:43:58;10.90;99.90
5697;DHT22;2873;50.966;7.210;2024-02-04T09:46:25;10.90;99.90
5697;DHT22;2873;50.966;7.210;2024-02-04T09:48:51;10.80;99.90
5697;DHT22;2873;50.966;7.210;2024-02-04T09:51:18;10.90;99.90
5697;DHT22;2873;50.966;7.210;2024-02-04T09:53:44;10.80;99.90
5697;DHT22;2873;50.966;7.210;2024-02-04T09:56:11;10.80;99.90
5697;DHT22;2873;50.966;7.210;2024-02-04T09:58:38;11.00;99.90
5697;DHT22;2873;50.966;7.210;2024-02-04T10:01:06;11.00;99.90
5697;DHT22;2873;50.966;7.210;2024-02-04T10:03:34;10.80;99.90
5697;DHT22;2873;50.966;7.210;2024-02-04T10:05:59;10.70;99.90
5697;DHT22;2873;50.966;7.210;2024-02-04T10:08:25;11.00;99.90
5697;DHT22;2873;50.966;7.210;2024-02-04T10:10:51;10.80;99.90
5697;DHT22;2873;50.966;7.210;2024-02-04T10:13:17;10.80;99.90
5697;DHT22;2873;50.966;7.210;2024-02-04T10:15:42;10.80;99.90
5697;DHT22;2873;50.966;7.210;2024-02-04T10:18:09;10.90;99.90
5697;DHT22;2873;50.966;7.210;2024-02-04T10:20:34;11.00;99.90
5697;DHT22;2873;50.966;7.210;2024-02-04T10:23:00;11.00;99.90
5697;DHT22;2873;50.966;7.210;2024-02-04T10:25:26;11.10;99.90
5697;DHT22;2873;50.966;7.210;2024-02-04T10:27:53;11.10;99.90
5697;DHT22;2873;50.966;7.210;2024-02-04T10:30:19;11.10;99.90
5697;DHT22;2873;50.966;7.210;2024-02-04T10:32:50;11.00;99.90
5697;DHT22;2873;50.966;7.210;2024-02-04T10:35:16;11.10;99.90
5697;DHT22;2873;50.966;7.210;2024-02-04T10:37:44;11.00;99.90
5697;DHT22;2873;50.966;7.210;2024-02-04T10:40:10;10.90;99.90
5697;DHT22;2873;50.966;7.210;2024-02-04T10:42:37;11.10;99.90
5697;DHT22;2873;50.966;7.210;2024-02-04T10:45:08;11.00;99.90
5697;DHT22;2873;50.966;7.210;2024-02-04T10:47:37;10.90;99.90
5697;DHT22;2873;50.966;7.210;2024-02-04T10:50:03;11.10;99.90
5697;DHT22;2873;50.966;7.210;2024-02-04T10:52:36;10.90;99.90
5697;DHT22;2873;50.966;7.210;2024-02-04T10:55:11;10.90;99.90
5697;DHT22;2873;50.966;7.210;2024-02-04T10:57:38;11.00;99.90
5697;DHT22;2873;50.966;7.210;2024-02-04T11:00:05;10.90;99.90
5697;DHT22;2873;50.966;7.210;2024-02-04T11:02:35;10.80;99.90
5697;DHT22;2873;50.966;7.210;2024-02-04T11:05:03;10.80;99.90
5697;DHT22;2873;50.966;7.210;2024-02-04T11:07:32;10.80;99.90
5697;DHT22;2873;50.966;7.210;2024-02-04T11:09:58;11.00;99.90
5697;DHT22;2873;50.966;7.210;2024-02-04T11:12:25;11.00;99.90
5697;DHT22;2873;50.966;7.210;2024-02-04T11:14:54;11.00;99.90
5697;DHT22;2873;50.966;7.210;2024-02-04T11:26:12;11.00;99.90
5697;DHT22;2873;50.966;7.210;2024-02-04T11:28:39;11.10;99.90
5697;DHT22;2873;50.966;7.210;2024-02-04T11:31:05;11.10;99.90
5697;DHT22;2873;50.966;7.210;2024-02-04T11:33:38;11.10;99.90
5697;DHT22;2873;50.966;7.210;2024-02-04T11:36:04;11.00;99.90
5697;DHT22;2873;50.966;7.210;2024-02-04T11:38:36;11.00;99.90
5697;DHT22;2873;50.966;7.210;2024-02-04T11:41:03;11.00;99.90
5697;DHT22;2873;50.966;7.210;2024-02-04T11:43:29;11.00;99.90
5697;DHT22;2873;50.966;7.210;2024-02-04T11:45:54;10.90;99.90
5697;DHT22;2873;50.966;7.210;2024-02-04T11:48:20;10.90;99.90
5697;DHT22;2873;50.966;7.210;2024-02-04T11:50:53;11.00;99.90
5697;DHT22;2873;50.966;7.210;2024-02-04T11:53:19;11.10;99.90
5697;DHT22;2873;50.966;7.210;2024-02-04T11:55:45;11.10;99.90
5697;DHT22;2873;50.966;7.210;2024-02-04T11:58:11;11.10;99.90
5697;DHT22;2873;50.966;7.210;2024-02-04T12:00:37;11.10;99.90
5697;DHT22;2873;50.966;7.210;2024-02-04T12:03:08;11.10;99.90
5697;DHT22;2873;50.966;7.210;2024-02-04T12:05:37;11.10;99.90
5697;DHT22;2873;50.966;7.210;2024-02-04T12:08:05;11.00;99.90
5697;DHT22;2873;50.966;7.210;2024-02-04T12:10:33;11.10;99.90
5697;DHT22;2873;50.966;7.210;2024-02-04T12:13:02;11.10;99.90
5697;DHT22;2873;50.966;7.210;2024-02-04T12:15:29;10.90;99.90
5697;DHT22;2873;50.966;7.210;2024-02-04T12:17:55;10.90;99.90
5697;DHT22;2873;50.966;7.210;2024-02-04T12:20:21;11.00;99.90
5697;DHT22;2873;50.966;7.210;2024-02-04T12:22:47;11.00;99.90
5697;DHT22;2873;50.966;7.210;2024-02-04T12:25:14;11.10;99.90
5697;DHT22;2873;50.966;7.210;2024-02-04T12:27:40;11.10;99.90
5697;DHT22;2873;50.966;7.210;2024-02-04T12:30:06;11.10;99.90
5697;DHT22;2873;50.966;7.210;2024-02-04T12:32:33;11.40;99.90
5697;DHT22;2873;50.966;7.210;2024-02-04T12:34:58;11.30;99.90
5697;DHT22;2873;50.966;7.210;2024-02-04T12:37:24;11.10;99.90
5697;DHT22;2873;50.966;7.210;2024-02-04T12:39:51;11.10;99.90
5697;DHT22;2873;50.966;7.210;2024-02-04T12:42:17;11.00;99.90
5697;DHT22;2873;50.966;7.210;2024-02-04T12:44:50;11.00;99.90
5697;DHT22;2873;50.966;7.210;2024-02-04T12:47:19;11.10;99.90
5697;DHT22;2873;50.966;7.210;2024-02-04T12:49:45;11.00;99.90
5697;DHT22;2873;50.966;7.210;2024-02-04T12:52:10;11.00;99.90
5697;DHT22;2873;50.966;7.210;2024-02-04T12:54:43;11.00;99.90
5697;DHT22;2873;50.966;7.210;2024-02-04T12:57:09;11.10;99.90
5697;DHT22;2873;50.966;7.210;2024-02-04T12:59:37;11.30;99.90
5697;DHT22;2873;50.966;7.210;2024-02-04T13:02:06;11.00;99.90
5697;DHT22;2873;50.966;7.210;2024-02-04T13:04:39;11.00;99.90
5697;DHT22;2873;50.966;7.210;2024-02-04T13:07:10;11.00;99.90
5697;DHT22;2873;50.966;7.210;2024-02-04T13:09:37;11.00;99.90
5697;DHT22;2873;50.966;7.210;2024-02-04T13:12:03;11.00;99.90
5697;DHT22;2873;50.966;7.210;2024-02-04T13:14:29;11.20;99.90
5697;DHT22;2873;50.966;7.210;2024-02-04T13:16:55;11.00;99.90
5697;DHT22;2873;50.966;7.210;2024-02-04T13:19:20;10.90;99.90
5697;DHT22;2873;50.966;7.210;2024-02-04T13:21:46;10.90;99.90
5697;DHT22;2873;50.966;7.210;2024-02-04T13:24:12;11.10;99.90
5697;DHT22;2873;50.966;7.210;2024-02-04T13:26:37;11.00;99.90
5697;DHT22;2873;50.966;7.210;2024-02-04T13:29:03;11.00;99.90
5697;DHT22;2873;50.966;7.210;2024-02-04T13:31:28;11.00;99.90
5697;DHT22;2873;50.966;7.210;2024-02-04T13:33:54;11.10;99.90
5697;DHT22;2873;50.966;7.210;2024-02-04T13:36:19;10.90;99.90
5697;DHT22;2873;50.966;7.210;2024-02-04T13:38:45;10.90;99.90
5697;DHT22;2873;50.966;7.210;2024-02-04T13:41:11;10.90;99.90
5697;DHT22;2873;50.966;7.210;2024-02-04T13:43:36;10.80;99.90
5697;DHT22;2873;50.966;7.210;2024-02-04T13:46:02;10.90;99.90
5697;DHT22;2873;50.966;7.210;2024-02-04T13:48:28;10.80;99.90
5697;DHT22;2873;50.966;7.210;2024-02-04T13:50:53;10.90;99.90
5697;DHT22;2873;50.966;7.210;2024-02-04T13:53:22;11.10;99.90
5697;DHT22;2873;50.966;7.210;2024-02-04T13:55:49;10.90;99.90
5697;DHT22;2873;50.966;7.210;2024-02-04T13:58:15;10.80;99.90
5697;DHT22;2873;50.966;7.210;2024-02-04T14:00:40;11.00;99.90
5697;DHT22;2873;50.966;7.210;2024-02-04T14:03:06;11.00;99.90
5697;DHT22;2873;50.966;7.210;2024-02-04T14:05:32;10.90;99.90
5697;DHT22;2873;50.966;7.210;2024-02-04T14:07:58;10.90;99.90
5697;DHT22;2873;50.966;7.210;2024-02-04T14:10:24;11.00;99.90
5697;DHT22;2873;50.966;7.210;2024-02-04T14:12:49;11.00;99.90
5697;DHT22;2873;50.966;7.210;2024-02-04T14:15:15;10.70;99.90
5697;DHT22;2873;50.966;7.210;2024-02-04T14:17:42;10.70;99.90
5697;DHT22;2873;50.966;7.210;2024-02-04T14:20:08;10.80;99.90
5697;DHT22;2873;50.966;7.210;2024-02-04T14:22:34;10.80;99.90
5697;DHT22;2873;50.966;7.210;2024-02-04T14:25:00;10.80;99.90
5697;DHT22;2873;50.966;7.210;2024-02-04T14:27:26;10.90;99.90
5697;DHT22;2873;50.966;7.210;2024-02-04T14:29:51;10.90;99.90
5697;DHT22;2873;50.966;7.210;2024-02-04T14:32:17;10.90;99.90
5697;DHT22;2873;50.966;7.210;2024-02-04T14:34:44;10.90;99.90
5697;DHT22;2873;50.966;7.210;2024-02-04T14:37:09;10.80;99.90
5697;DHT22;2873;50.966;7.210;2024-02-04T14:39:36;11.00;99.90
5697;DHT22;2873;50.966;7.210;2024-02-04T14:42:01;10.90;99.90
5697;DHT22;2873;50.966;7.210;2024-02-04T14:44:27;10.80;99.90
5697;DHT22;2873;50.966;7.210;2024-02-04T14:46:53;10.90;99.90
5697;DHT22;2873;50.966;7.210;2024-02-04T14:49:18;11.00;99.90
5697;DHT22;2873;50.966;7.210;2024-02-04T14:51:44;11.10;99.90
5697;DHT22;2873;50.966;7.210;2024-02-04T14:54:09;11.10;99.90
5697;DHT22;2873;50.966;7.210;2024-02-04T14:56:39;11.10;99.90
5697;DHT22;2873;50.966;7.210;2024-02-04T14:59:07;11.20;99.90
5697;DHT22;2873;50.966;7.210;2024-02-04T15:01:33;11.20;99.90
5697;DHT22;2873;50.966;7.210;2024-02-04T15:03:58;11.00;99.90
5697;DHT22;2873;50.966;7.210;2024-02-04T15:06:26;11.10;99.90
5697;DHT22;2873;50.966;7.210;2024-02-04T15:08:51;11.00;99.90
5697;DHT22;2873;50.966;7.210;2024-02-04T15:11:17;11.10;99.90
5697;DHT22;2873;50.966;7.210;2024-02-04T15:13:43;11.00;99.90
5697;DHT22;2873;50.966;7.210;2024-02-04T15:16:11;11.00;99.90
5697;DHT22;2873;50.966;7.210;2024-02-04T15:18:38;11.00;99.90
5697;DHT22;2873;50.966;7.210;2024-02-04T15:21:04;11.00;99.90
5697;DHT22;2873;50.966;7.210;2024-02-04T15:23:30;11.10;99.90
5697;DHT22;2873;50.966;7.210;2024-02-04T15:25:56;10.90;99.90
5697;DHT22;2873;50.966;7.210;2024-02-04T15:28:23;11.00;99.90
5697;DHT22;2873;50.966;7.210;2024-02-04T15:30:49;11.10;99.90
5697;DHT22;2873;50.966;7.210;2024-02-04T15:33:15;11.10;99.90
5697;DHT22;2873;50.966;7.210;2024-02-04T15:35:41;11.10;99.90
5697;DHT22;2873;50.966;7.210;2024-02-04T15:38:07;11.30;99.90
5697;DHT22;2873;50.966;7.210;2024-02-04T15:40:33;11.10;99.90
5697;DHT22;2873;50.966;7.210;2024-02-04T15:42:58;11.00;99.90
5697;DHT22;2873;50.966;7.210;2024-02-04T15:45:26;11.10;99.90
5697;DHT22;2873;50.966;7.210;2024-02-04T15:47:52;11.00;99.90
5697;DHT22;2873;50.966;7.210;2024-02-04T15:50:19;11.10;99.90
5697;DHT22;2873;50.966;7.210;2024-02-04T15:52:46;11.20;99.90
5697;DHT22;2873;50.966;7.210;2024-02-04T15:55:13;11.00;99.90
5697;DHT22;2873;50.966;7.210;2024-02-04T15:57:40;11.00;99.90
5697;DHT22;2873;50.966;7.210;2024-02-04T16:00:08;11.00;99.90
5697;DHT22;2873;50.966;7.210;2024-02-04T16:02:38;11.20;99.90
5697;DHT22;2873;50.966;7.210;2024-02-04T16:05:04;11.00;99.90
5697;DHT22;2873;50.966;7.210;2024-02-04T16:07:31;11.10;99.90
5697;DHT22;2873;50.966;7.210;2024-02-04T16:09:57;10.90;99.90